sensor_id;sensor_type;location;lat;lon;timestamp;P1;durP1;ratioP1;P2;durP2;ratioP2
5454;SDS011;2750;49.050;9.250;2023-05-07T00:02:38;5.23;;;4.40;;
5454;SDS011;2750;49.050;9.250;2023-05-07T00:07:41;5.63;;;4.47;;
5454;SDS011;2750;49.050;9.250;2023-05-07T00:12:43;5.20;;;4.60;;
5454;SDS011;2750;49.050;9.250;2023-05-07T00:17:44;5.80;;;4.43;;
5454;SDS011;2750;49.050;9.250;2023-05-07T00:22:47;5.37;;;4.47;;
5454;SDS011;2750;49.050;9.250;2023-05-07T00:27:49;6.17;;;4.77;;
5454;SDS011;2750;49.050;9.250;2023-05-07T00:32:50;5.40;;;4.27;;
5454;SDS011;2750;49.050;9.250;2023-05-07T00:37:53;5.70;;;5.20;;
5454;SDS011;2750;49.050;9.250;2023-05-07T00:42:55;6.73;;;5.77;;
5454;SDS011;2750;49.050;9.250;2023-05-07T00:48:00;6.37;;;4.30;;
5454;SDS011;2750;49.050;9.250;2023-05-07T00:53:04;4.07;;;3.67;;
5454;SDS011;2750;49.050;9.250;2023-05-07T00:58:06;3.73;;;3.33;;
5454;SDS011;2750;49.050;9.250;2023-05-07T01:03:07;6.10;;;3.50;;
5454;SDS011;2750;49.050;9.250;2023-05-07T01:08:10;5.23;;;3.70;;
5454;SDS011;2750;49.050;9.250;2023-05-07T01:13:12;4.33;;;3.93;;
5454;SDS011;2750;49.050;9.250;2023-05-07T01:18:15;7.70;;;4.10;;
5454;SDS011;2750;49.050;9.250;2023-05-07T01:23:18;4.27;;;3.87;;
5454;SDS011;2750;49.050;9.250;2023-05-07T01:28:20;4.20;;;3.80;;
5454;SDS011;2750;49.050;9.250;2023-05-07T01:33:22;4.53;;;4.13;;
5454;SDS011;2750;49.050;9.250;2023-05-07T01:38:25;4.00;;;3.60;;
5454;SDS011;2750;49.050;9.250;2023-05-07T01:43:27;4.87;;;3.53;;
5454;SDS011;2750;49.050;9.250;2023-05-07T01:48:29;3.73;;;3.43;;
5454;SDS011;2750;49.050;9.250;2023-05-07T01:53:36;4.13;;;3.73;;
5454;SDS011;2750;49.050;9.250;2023-05-07T01:58:38;3.60;;;3.30;;
5454;SDS011;2750;49.050;9.250;2023-05-07T02:03:39;4.30;;;3.90;;
5454;SDS011;2750;49.050;9.250;2023-05-07T02:08:42;5.83;;;5.20;;
5454;SDS011;2750;49.050;9.250;2023-05-07T02:13:44;6.93;;;5.77;;
5454;SDS011;2750;49.050;9.250;2023-05-07T02:18:45;5.40;;;4.70;;
5454;SDS011;2750;49.050;9.250;2023-05-07T02:23:48;5.80;;;3.93;;
5454;SDS011;2750;49.050;9.250;2023-05-07T02:28:50;5.60;;;3.60;;
5454;SDS011;2750;49.050;9.250;2023-05-07T02:33:52;4.30;;;3.90;;
5454;SDS011;2750;49.050;9.250;2023-05-07T02:38:54;3.73;;;3.40;;
5454;SDS011;2750;49.050;9.250;2023-05-07T02:43:56;5.30;;;4.20;;
5454;SDS011;2750;49.050;9.250;2023-05-07T02:48:57;8.60;;;6.33;;
5454;SDS011;2750;49.050;9.250;2023-05-07T02:54:00;7.20;;;6.10;;
5454;SDS011;2750;49.050;9.250;2023-05-07T02:59:01;8.43;;;7.03;;
5454;SDS011;2750;49.050;9.250;2023-05-07T03:04:03;8.00;;;6.53;;
5454;SDS011;2750;49.050;9.250;2023-05-07T03:09:06;5.27;;;4.77;;
5454;SDS011;2750;49.050;9.250;2023-05-07T03:14:08;7.60;;;5.53;;
5454;SDS011;2750;49.050;9.250;2023-05-07T03:19:10;7.50;;;5.07;;
5454;SDS011;2750;49.050;9.250;2023-05-07T03:24:12;5.87;;;5.27;;
5454;SDS011;2750;49.050;9.250;2023-05-07T03:29:14;6.10;;;5.20;;
5454;SDS011;2750;49.050;9.250;2023-05-07T03:34:15;6.77;;;6.07;;
5454;SDS011;2750;49.050;9.250;2023-05-07T03:39:23;7.43;;;4.67;;
5454;SDS011;2750;49.050;9.250;2023-05-07T03:44:24;4.63;;;3.77;;
5454;SDS011;2750;49.050;9.250;2023-05-07T03:49:26;4.83;;;4.40;;
5454;SDS011;2750;49.050;9.250;2023-05-07T03:54:29;5.67;;;4.70;;
5454;SDS011;2750;49.050;9.250;2023-05-07T03:59:31;5.57;;;5.07;;
5454;SDS011;2750;49.050;9.250;2023-05-07T04:04:32;4.97;;;4.57;;
5454;SDS011;2750;49.050;9.250;2023-05-07T04:09:35;5.27;;;4.73;;
5454;SDS011;2750;49.050;9.250;2023-05-07T04:14:37;6.87;;;5.77;;
5454;SDS011;2750;49.050;9.250;2023-05-07T04:19:38;6.97;;;4.60;;
5454;SDS011;2750;49.050;9.250;2023-05-07T04:24:41;5.73;;;5.17;;
5454;SDS011;2750;49.050;9.250;2023-05-07T04:29:43;7.83;;;5.30;;
5454;SDS011;2750;49.050;9.250;2023-05-07T04:34:47;5.50;;;5.00;;
5454;SDS011;2750;49.050;9.250;2023-05-07T04:39:50;7.93;;;4.97;;
5454;SDS011;2750;49.050;9.250;2023-05-07T04:44:52;7.10;;;5.27;;
5454;SDS011;2750;49.050;9.250;2023-05-07T04:49:54;6.33;;;5.00;;
5454;SDS011;2750;49.050;9.250;2023-05-07T04:54:58;5.27;;;4.23;;
5454;SDS011;2750;49.050;9.250;2023-05-07T05:00:00;4.80;;;3.10;;
5454;SDS011;2750;49.050;9.250;2023-05-07T05:05:03;3.50;;;3.20;;
5454;SDS011;2750;49.050;9.250;2023-05-07T05:10:06;3.90;;;3.47;;
5454;SDS011;2750;49.050;9.250;2023-05-07T05:15:08;5.23;;;3.20;;
5454;SDS011;2750;49.050;9.250;2023-05-07T05:20:12;5.63;;;3.73;;
5454;SDS011;2750;49.050;9.250;2023-05-07T05:25:16;4.50;;;3.37;;
5454;SDS011;2750;49.050;9.250;2023-05-07T05:30:17;5.60;;;3.50;;
5454;SDS011;2750;49.050;9.250;2023-05-07T05:35:19;3.63;;;3.33;;
5454;SDS011;2750;49.050;9.250;2023-05-07T05:40:22;3.83;;;3.17;;
5454;SDS011;2750;49.050;9.250;2023-05-07T05:45:23;5.00;;;3.90;;
5454;SDS011;2750;49.050;9.250;2023-05-07T05:50:25;4.53;;;3.40;;
5454;SDS011;2750;49.050;9.250;2023-05-07T05:55:28;6.87;;;3.80;;
5454;SDS011;2750;49.050;9.250;2023-05-07T06:00:29;3.37;;;3.17;;
5454;SDS011;2750;49.050;9.250;2023-05-07T06:05:31;3.47;;;3.17;;
5454;SDS011;2750;49.050;9.250;2023-05-07T06:10:34;4.90;;;3.40;;
5454;SDS011;2750;49.050;9.250;2023-05-07T06:15:36;6.73;;;3.63;;
5454;SDS011;2750;49.050;9.250;2023-05-07T06:20:38;4.63;;;3.90;;
5454;SDS011;2750;49.050;9.250;2023-05-07T06:25:41;4.17;;;3.10;;
5454;SDS011;2750;49.050;9.250;2023-05-07T06:30:42;3.67;;;3.30;;
5454;SDS011;2750;49.050;9.250;2023-05-07T06:35:44;3.47;;;3.15;;
5454;SDS011;2750;49.050;9.250;2023-05-07T06:40:49;4.75;;;3.45;;
5454;SDS011;2750;49.050;9.250;2023-05-07T06:45:50;3.88;;;3.58;;
5454;SDS011;2750;49.050;9.250;2023-05-07T06:50:52;4.78;;;3.72;;
5454;SDS011;2750;49.050;9.250;2023-05-07T06:55:57;5.32;;;3.50;;
5454;SDS011;2750;49.050;9.250;2023-05-07T07:00:58;5.68;;;3.92;;
5454;SDS011;2750;49.050;9.250;2023-05-07T07:06:00;4.47;;;4.07;;
5454;SDS011;2750;49.050;9.250;2023-05-07T07:11:04;4.07;;;3.67;;
5454;SDS011;2750;49.050;9.250;2023-05-07T07:16:06;3.83;;;3.28;;
5454;SDS011;2750;49.050;9.250;2023-05-07T07:21:07;3.05;;;2.75;;
5454;SDS011;2750;49.050;9.250;2023-05-07T07:26:11;3.78;;;2.58;;
5454;SDS011;2750;49.050;9.250;2023-05-07T07:31:12;4.75;;;2.65;;
5454;SDS011;2750;49.050;9.250;2023-05-07T07:36:14;2.90;;;2.60;;
5454;SDS011;2750;49.050;9.250;2023-05-07T07:41:17;4.60;;;2.53;;
5454;SDS011;2750;49.050;9.250;2023-05-07T07:46:18;3.78;;;2.88;;
5454;SDS011;2750;49.050;9.250;2023-05-07T07:51:20;2.45;;;2.20;;
5454;SDS011;2750;49.050;9.250;2023-05-07T07:56:23;2.65;;;2.45;;
5454;SDS011;2750;49.050;9.250;2023-05-07T08:01:24;2.72;;;2.53;;
5454;SDS011;2750;49.050;9.250;2023-05-07T08:06:26;2.17;;;2.08;;
5454;SDS011;2750;49.050;9.250;2023-05-07T08:11:29;3.60;;;2.15;;
5454;SDS011;2750;49.050;9.250;2023-05-07T08:16:30;2.35;;;2.15;;
5454;SDS011;2750;49.050;9.250;2023-05-07T08:21:32;3.67;;;2.30;;
5454;SDS011;2750;49.050;9.250;2023-05-07T08:26:35;2.75;;;2.53;;
5454;SDS011;2750;49.050;9.250;2023-05-07T08:31:39;2.63;;;2.35;;
5454;SDS011;2750;49.050;9.250;2023-05-07T08:36:40;2.60;;;2.40;;
5454;SDS011;2750;49.050;9.250;2023-05-07T08:41:44;2.75;;;2.55;;
5454;SDS011;2750;49.050;9.250;2023-05-07T08:46:46;2.80;;;2.60;;
5454;SDS011;2750;49.050;9.250;2023-05-07T08:51:51;2.38;;;2.17;;
5454;SDS011;2750;49.050;9.250;2023-05-07T08:56:54;2.78;;;2.55;;
5454;SDS011;2750;49.050;9.250;2023-05-07T09:01:55;2.83;;;2.53;;
5454;SDS011;2750;49.050;9.250;2023-05-07T09:06:57;4.03;;;2.85;;
5454;SDS011;2750;49.050;9.250;2023-05-07T09:12:06;3.67;;;2.55;;
5454;SDS011;2750;49.050;9.250;2023-05-07T09:17:08;2.83;;;2.30;;
5454;SDS011;2750;49.050;9.250;2023-05-07T09:22:10;3.17;;;2.33;;
5454;SDS011;2750;49.050;9.250;2023-05-07T09:27:12;3.17;;;2.63;;
5454;SDS011;2750;49.050;9.250;2023-05-07T09:32:14;3.53;;;2.60;;
5454;SDS011;2750;49.050;9.250;2023-05-07T09:37:16;2.78;;;2.20;;
5454;SDS011;2750;49.050;9.250;2023-05-07T09:42:23;2.33;;;2.17;;
5454;SDS011;2750;49.050;9.250;2023-05-07T09:47:26;2.50;;;2.30;;
5454;SDS011;2750;49.050;9.250;2023-05-07T09:52:33;2.80;;;2.40;;
5454;SDS011;2750;49.050;9.250;2023-05-07T09:57:37;2.20;;;2.00;;
5454;SDS011;2750;49.050;9.250;2023-05-07T10:02:41;2.65;;;2.40;;
5454;SDS011;2750;49.050;9.250;2023-05-07T10:07:48;2.30;;;2.10;;
5454;SDS011;2750;49.050;9.250;2023-05-07T10:12:51;3.00;;;1.90;;
5454;SDS011;2750;49.050;9.250;2023-05-07T10:17:53;2.30;;;2.10;;
5454;SDS011;2750;49.050;9.250;2023-05-07T10:22:56;3.15;;;1.75;;
5454;SDS011;2750;49.050;9.250;2023-05-07T10:28:02;2.30;;;2.13;;
5454;SDS011;2750;49.050;9.250;2023-05-07T10:33:08;3.47;;;1.90;;
5454;SDS011;2750;49.050;9.250;2023-05-07T10:38:11;2.25;;;2.05;;
5454;SDS011;2750;49.050;9.250;2023-05-07T10:43:15;3.08;;;2.20;;
5454;SDS011;2750;49.050;9.250;2023-05-07T10:48:17;2.70;;;2.10;;
5454;SDS011;2750;49.050;9.250;2023-05-07T10:53:25;1.95;;;1.85;;
5454;SDS011;2750;49.050;9.250;2023-05-07T10:58:31;2.28;;;2.00;;
5454;SDS011;2750;49.050;9.250;2023-05-07T11:03:33;2.42;;;2.20;;
5454;SDS011;2750;49.050;9.250;2023-05-07T11:08:53;3.22;;;2.40;;
5454;SDS011;2750;49.050;9.250;2023-05-07T11:13:57;4.45;;;2.55;;
5454;SDS011;2750;49.050;9.250;2023-05-07T11:18:58;2.47;;;2.25;;
5454;SDS011;2750;49.050;9.250;2023-05-07T11:24:00;2.60;;;2.15;;
5454;SDS011;2750;49.050;9.250;2023-05-07T11:29:04;3.28;;;2.38;;
5454;SDS011;2750;49.050;9.250;2023-05-07T11:34:12;2.70;;;2.50;;
5454;SDS011;2750;49.050;9.250;2023-05-07T11:39:24;2.78;;;2.00;;
5454;SDS011;2750;49.050;9.250;2023-05-07T11:44:43;2.92;;;2.00;;
5454;SDS011;2750;49.050;9.250;2023-05-07T11:49:47;2.50;;;2.30;;
5454;SDS011;2750;49.050;9.250;2023-05-07T11:54:49;3.45;;;2.42;;
5454;SDS011;2750;49.050;9.250;2023-05-07T11:59:53;2.63;;;2.42;;
5454;SDS011;2750;49.050;9.250;2023-05-07T12:04:55;2.30;;;2.10;;
5454;SDS011;2750;49.050;9.250;2023-05-07T12:09:56;2.45;;;2.25;;
5454;SDS011;2750;49.050;9.250;2023-05-07T12:15:02;4.70;;;2.42;;
5454;SDS011;2750;49.050;9.250;2023-05-07T12:20:04;3.03;;;2.35;;
5454;SDS011;2750;49.050;9.250;2023-05-07T12:25:07;3.42;;;2.25;;
5454;SDS011;2750;49.050;9.250;2023-05-07T12:30:11;2.80;;;2.60;;
5454;SDS011;2750;49.050;9.250;2023-05-07T12:35:14;3.00;;;2.75;;
5454;SDS011;2750;49.050;9.250;2023-05-07T12:40:15;2.00;;;1.90;;
5454;SDS011;2750;49.050;9.250;2023-05-07T12:45:18;10.77;;;2.30;;
5454;SDS011;2750;49.050;9.250;2023-05-07T12:50:20;3.58;;;2.20;;
5454;SDS011;2750;49.050;9.250;2023-05-07T12:55:21;2.53;;;1.92;;
5454;SDS011;2750;49.050;9.250;2023-05-07T13:00:34;2.60;;;2.05;;
5454;SDS011;2750;49.050;9.250;2023-05-07T13:05:36;2.25;;;2.05;;
5454;SDS011;2750;49.050;9.250;2023-05-07T13:10:38;2.03;;;1.83;;
5454;SDS011;2750;49.050;9.250;2023-05-07T13:15:41;3.78;;;1.90;;
5454;SDS011;2750;49.050;9.250;2023-05-07T13:20:42;1.92;;;1.73;;
5454;SDS011;2750;49.050;9.250;2023-05-07T13:25:44;2.63;;;2.30;;
5454;SDS011;2750;49.050;9.250;2023-05-07T13:30:47;2.17;;;1.98;;
5454;SDS011;2750;49.050;9.250;2023-05-07T13:35:48;2.40;;;2.20;;
5454;SDS011;2750;49.050;9.250;2023-05-07T13:40:50;1.90;;;1.80;;
5454;SDS011;2750;49.050;9.250;2023-05-07T13:45:53;3.72;;;2.50;;
5454;SDS011;2750;49.050;9.250;2023-05-07T13:50:54;2.40;;;2.03;;
5454;SDS011;2750;49.050;9.250;2023-05-07T13:55:56;5.32;;;3.17;;
5454;SDS011;2750;49.050;9.250;2023-05-07T14:00:58;3.65;;;3.10;;
5454;SDS011;2750;49.050;9.250;2023-05-07T14:06:00;5.63;;;3.83;;
5454;SDS011;2750;49.050;9.250;2023-05-07T14:11:01;4.07;;;3.10;;
5454;SDS011;2750;49.050;9.250;2023-05-07T14:16:05;5.90;;;3.70;;
5454;SDS011;2750;49.050;9.250;2023-05-07T14:21:06;4.27;;;3.03;;
5454;SDS011;2750;49.050;9.250;2023-05-07T14:26:09;3.27;;;2.67;;
5454;SDS011;2750;49.050;9.250;2023-05-07T14:31:12;3.33;;;3.03;;
5454;SDS011;2750;49.050;9.250;2023-05-07T14:36:14;4.00;;;3.70;;
5454;SDS011;2750;49.050;9.250;2023-05-07T14:41:15;3.20;;;2.90;;
5454;SDS011;2750;49.050;9.250;2023-05-07T14:46:18;4.37;;;3.50;;
5454;SDS011;2750;49.050;9.250;2023-05-07T14:51:20;4.63;;;3.47;;
5454;SDS011;2750;49.050;9.250;2023-05-07T14:56:21;5.40;;;4.10;;
5454;SDS011;2750;49.050;9.250;2023-05-07T15:01:26;4.07;;;3.70;;
5454;SDS011;2750;49.050;9.250;2023-05-07T15:06:27;4.57;;;3.90;;
5454;SDS011;2750;49.050;9.250;2023-05-07T15:11:29;4.23;;;3.60;;
5454;SDS011;2750;49.050;9.250;2023-05-07T15:16:32;5.10;;;3.70;;
5454;SDS011;2750;49.050;9.250;2023-05-07T15:21:34;4.80;;;3.60;;
5454;SDS011;2750;49.050;9.250;2023-05-07T15:26:36;6.83;;;3.77;;
5454;SDS011;2750;49.050;9.250;2023-05-07T15:31:39;4.00;;;3.63;;
5454;SDS011;2750;49.050;9.250;2023-05-07T15:36:40;5.03;;;4.37;;
5454;SDS011;2750;49.050;9.250;2023-05-07T15:41:42;4.97;;;4.00;;
5454;SDS011;2750;49.050;9.250;2023-05-07T15:46:45;5.03;;;4.50;;
5454;SDS011;2750;49.050;9.250;2023-05-07T15:51:46;5.93;;;5.10;;
5454;SDS011;2750;49.050;9.250;2023-05-07T15:56:48;5.20;;;4.40;;
5454;SDS011;2750;49.050;9.250;2023-05-07T16:01:50;5.27;;;4.53;;
5454;SDS011;2750;49.050;9.250;2023-05-07T16:06:52;5.10;;;4.60;;
5454;SDS011;2750;49.050;9.250;2023-05-07T16:11:54;8.27;;;6.03;;
5454;SDS011;2750;49.050;9.250;2023-05-07T16:16:57;6.93;;;5.73;;
5454;SDS011;2750;49.050;9.250;2023-05-07T16:21:59;7.83;;;5.90;;
5454;SDS011;2750;49.050;9.250;2023-05-07T16:27:00;6.47;;;5.87;;
5454;SDS011;2750;49.050;9.250;2023-05-07T16:32:03;6.10;;;5.50;;
5454;SDS011;2750;49.050;9.250;2023-05-07T16:37:05;6.23;;;5.73;;
5454;SDS011;2750;49.050;9.250;2023-05-07T16:42:07;6.30;;;5.73;;
5454;SDS011;2750;49.050;9.250;2023-05-07T16:47:09;7.40;;;6.27;;
5454;SDS011;2750;49.050;9.250;2023-05-07T16:52:11;6.70;;;5.77;;
5454;SDS011;2750;49.050;9.250;2023-05-07T16:57:12;8.70;;;6.50;;
5454;SDS011;2750;49.050;9.250;2023-05-07T17:02:15;9.00;;;6.73;;
5454;SDS011;2750;49.050;9.250;2023-05-07T17:07:17;6.40;;;5.50;;
5454;SDS011;2750;49.050;9.250;2023-05-07T17:12:18;8.53;;;5.97;;
5454;SDS011;2750;49.050;9.250;2023-05-07T17:17:21;8.17;;;4.93;;
5454;SDS011;2750;49.050;9.250;2023-05-07T17:22:23;8.07;;;5.40;;
5454;SDS011;2750;49.050;9.250;2023-05-07T17:27:24;6.07;;;4.80;;
5454;SDS011;2750;49.050;9.250;2023-05-07T17:32:27;6.17;;;4.93;;
5454;SDS011;2750;49.050;9.250;2023-05-07T17:37:29;9.07;;;8.10;;
5454;SDS011;2750;49.050;9.250;2023-05-07T17:42:30;6.40;;;4.83;;
5454;SDS011;2750;49.050;9.250;2023-05-07T17:47:33;4.80;;;4.37;;
5454;SDS011;2750;49.050;9.250;2023-05-07T17:52:35;5.47;;;4.73;;
5454;SDS011;2750;49.050;9.250;2023-05-07T17:57:36;5.83;;;4.53;;
5454;SDS011;2750;49.050;9.250;2023-05-07T18:02:39;5.03;;;3.90;;
5454;SDS011;2750;49.050;9.250;2023-05-07T18:07:41;5.67;;;4.53;;
5454;SDS011;2750;49.050;9.250;2023-05-07T18:12:42;5.63;;;5.17;;
5454;SDS011;2750;49.050;9.250;2023-05-07T18:17:45;4.80;;;4.23;;
5454;SDS011;2750;49.050;9.250;2023-05-07T18:22:46;7.37;;;5.50;;
5454;SDS011;2750;49.050;9.250;2023-05-07T18:27:48;5.80;;;5.23;;
5454;SDS011;2750;49.050;9.250;2023-05-07T18:32:51;9.40;;;8.00;;
5454;SDS011;2750;49.050;9.250;2023-05-07T18:37:52;5.77;;;5.27;;
5454;SDS011;2750;49.050;9.250;2023-05-07T18:42:54;6.03;;;5.13;;
5454;SDS011;2750;49.050;9.250;2023-05-07T18:47:56;7.70;;;5.67;;
5454;SDS011;2750;49.050;9.250;2023-05-07T18:52:58;6.37;;;5.87;;
5454;SDS011;2750;49.050;9.250;2023-05-07T18:57:59;7.03;;;5.87;;
5454;SDS011;2750;49.050;9.250;2023-05-07T19:03:02;13.80;;;11.47;;
5454;SDS011;2750;49.050;9.250;2023-05-07T19:08:04;10.43;;;9.07;;
5454;SDS011;2750;49.050;9.250;2023-05-07T19:13:06;21.73;;;19.10;;
5454;SDS011;2750;49.050;9.250;2023-05-07T19:18:09;11.33;;;9.70;;
5454;SDS011;2750;49.050;9.250;2023-05-07T19:23:10;9.73;;;8.50;;
5454;SDS011;2750;49.050;9.250;2023-05-07T19:28:11;10.10;;;9.00;;
5454;SDS011;2750;49.050;9.250;2023-05-07T19:33:14;10.77;;;9.67;;
5454;SDS011;2750;49.050;9.250;2023-05-07T19:38:16;12.10;;;10.10;;
5454;SDS011;2750;49.050;9.250;2023-05-07T19:43:17;11.07;;;9.97;;
5454;SDS011;2750;49.050;9.250;2023-05-07T19:48:20;11.63;;;10.37;;
5454;SDS011;2750;49.050;9.250;2023-05-07T19:53:21;11.97;;;10.23;;
5454;SDS011;2750;49.050;9.250;2023-05-07T19:58:23;17.43;;;11.83;;
5454;SDS011;2750;49.050;9.250;2023-05-07T20:03:26;12.57;;;11.20;;
5454;SDS011;2750;49.050;9.250;2023-05-07T20:08:28;13.73;;;12.33;;
5454;SDS011;2750;49.050;9.250;2023-05-07T20:13:30;15.13;;;13.57;;
5454;SDS011;2750;49.050;9.250;2023-05-07T20:18:33;15.50;;;13.80;;
5454;SDS011;2750;49.050;9.250;2023-05-07T20:23:34;17.00;;;14.57;;
5454;SDS011;2750;49.050;9.250;2023-05-07T20:28:36;16.13;;;14.33;;
5454;SDS011;2750;49.050;9.250;2023-05-07T20:33:38;17.80;;;15.70;;
5454;SDS011;2750;49.050;9.250;2023-05-07T20:38:40;16.00;;;14.30;;
5454;SDS011;2750;49.050;9.250;2023-05-07T20:43:41;18.43;;;14.63;;
5454;SDS011;2750;49.050;9.250;2023-05-07T20:48:44;17.13;;;15.33;;
5454;SDS011;2750;49.050;9.250;2023-05-07T20:53:46;17.90;;;14.97;;
5454;SDS011;2750;49.050;9.250;2023-05-07T20:58:47;18.90;;;15.07;;
5454;SDS011;2750;49.050;9.250;2023-05-07T21:03:50;17.53;;;14.70;;
5454;SDS011;2750;49.050;9.250;2023-05-07T21:08:53;15.77;;;13.60;;
5454;SDS011;2750;49.050;9.250;2023-05-07T21:13:55;16.87;;;14.63;;
5454;SDS011;2750;49.050;9.250;2023-05-07T21:18:57;18.00;;;16.10;;
5454;SDS011;2750;49.050;9.250;2023-05-07T21:23:59;19.87;;;16.70;;
5454;SDS011;2750;49.050;9.250;2023-05-07T21:29:00;22.97;;;18.00;;
5454;SDS011;2750;49.050;9.250;2023-05-07T21:34:03;19.70;;;16.83;;
5454;SDS011;2750;49.050;9.250;2023-05-07T21:39:06;18.30;;;16.23;;
5454;SDS011;2750;49.050;9.250;2023-05-07T21:44:08;21.20;;;17.20;;
5454;SDS011;2750;49.050;9.250;2023-05-07T21:49:12;16.47;;;14.73;;
5454;SDS011;2750;49.050;9.250;2023-05-07T21:54:13;17.33;;;15.23;;
5454;SDS011;2750;49.050;9.250;2023-05-07T21:59:15;21.07;;;16.03;;
5454;SDS011;2750;49.050;9.250;2023-05-07T22:04:18;19.87;;;17.83;;
5454;SDS011;2750;49.050;9.250;2023-05-07T22:09:20;18.93;;;14.70;;
5454;SDS011;2750;49.050;9.250;2023-05-07T22:14:21;19.47;;;15.03;;
5454;SDS011;2750;49.050;9.250;2023-05-07T22:19:24;18.57;;;16.13;;
5454;SDS011;2750;49.050;9.250;2023-05-07T22:24:27;22.13;;;16.30;;
5454;SDS011;2750;49.050;9.250;2023-05-07T22:29:29;21.93;;;19.13;;
5454;SDS011;2750;49.050;9.250;2023-05-07T22:34:31;25.17;;;19.77;;
5454;SDS011;2750;49.050;9.250;2023-05-07T22:39:33;17.40;;;14.37;;
5454;SDS011;2750;49.050;9.250;2023-05-07T22:44:34;18.53;;;14.57;;
5454;SDS011;2750;49.050;9.250;2023-05-07T22:49:37;17.10;;;14.23;;
5454;SDS011;2750;49.050;9.250;2023-05-07T22:54:39;14.97;;;12.83;;
5454;SDS011;2750;49.050;9.250;2023-05-07T22:59:40;13.77;;;12.43;;
5454;SDS011;2750;49.050;9.250;2023-05-07T23:04:43;15.27;;;13.10;;
5454;SDS011;2750;49.050;9.250;2023-05-07T23:09:45;18.07;;;12.87;;
5454;SDS011;2750;49.050;9.250;2023-05-07T23:14:46;14.07;;;12.57;;
5454;SDS011;2750;49.050;9.250;2023-05-07T23:19:49;16.13;;;13.07;;
5454;SDS011;2750;49.050;9.250;2023-05-07T23:24:51;15.53;;;11.70;;
5454;SDS011;2750;49.050;9.250;2023-05-07T23:29:52;14.53;;;11.53;;
5454;SDS011;2750;49.050;9.250;2023-05-07T23:34:55;15.00;;;11.43;;
5454;SDS011;2750;49.050;9.250;2023-05-07T23:39:57;15.00;;;11.97;;
5454;SDS011;2750;49.050;9.250;2023-05-07T23:44:58;13.73;;;12.20;;
5454;SDS011;2750;49.050;9.250;2023-05-07T23:50:01;12.97;;;11.03;;
5454;SDS011;2750;49.050;9.250;2023-05-07T23:55:03;11.87;;;10.27;;
